Alverton, PA

12:41 PM EDT on July 27, 2016 (GMT -0400)
Near Evergreen Drive-in | | Change Station

Elev 1060 ft 40.12 °N, 79.55 °W | Updated 8 seconds ago

Scattered Clouds
Scattered Clouds
86.5 °F
Feels Like 89 °F
N
2.2
Wind Variable Wind from WNW
Gusts 3.1 mph

Today
High -- | Low -- °F
--% Chance of Precip.
Yesterday
High -- | Low -- °F
Precip. -- in
Pressure 30.05 in
Visibility 10.0 miles
Clouds Scattered Clouds 1500 ft
Heat Index 89 °F
Dew Point 66 °F
Humidity 50%
Rainfall in
Snow Depth Not available.
6:12 AM 8:36 PM
Last Quarter, 42% visible
METAR KLBE 271550Z 00000KT 10SM SCT015 27/19 A3005
Pressure 30.05 in
Visibility 10.0 miles
Clouds Scattered Clouds 1500 ft
Heat Index 89 °F
Dew Point 66 °F
Humidity 50%
Rainfall in
Snow Depth Not available.
6:12 AM 8:36 PM
Last Quarter, 42% visible
METAR KLBE 271550Z 00000KT 10SM SCT015 27/19 A3005

10-Day Weather Forecast

Almanac

Astronomy

Jul. 27, 2016 Rise Set
Actual Time
Civil Twilight
Nautical Twilight
Astronomical Twilight
Moon
Length of Visible Light
Length of Day
Tomorrow will be .
, % of the Moon is Illuminated

Today's Extremes

State Highs State Lows

Community

WunderPhotos

Upload Photos

1,927,880 photos uploaded!

WunderBlog® & News

Nearby

Air Quality

  Air Quality AQ Index Pollutant
Not available.

Snow Depth

Station Depth Elevation

Earthquake Activity

City Distance Mag. Time & Date
Minimum magnitude displayed is 2.5.

Coastal Water Temperatures

Place Temperature

Stations

Nearby Weather Stations

Station Location Temp. Windchill Dew Point Humidity Wind Precip. Elev Updated Type
                   

Watches & Warnings

There are currently no watches in effect.